createdAt,value
2023-05-18T00:00:21.148Z,20.88
2023-05-18T00:05:26.152Z,21.06
2023-05-18T00:10:31.732Z,21.17
2023-05-18T00:15:36.844Z,21.37
2023-05-18T00:20:42.887Z,21.47
2023-05-18T00:25:47.847Z,21.58
2023-05-18T00:30:57.095Z,21.71
2023-05-18T00:36:02.626Z,21.79
2023-05-18T00:41:07.701Z,21.88
2023-05-18T00:46:13.147Z,21.96
2023-05-18T00:51:18.831Z,22.08
2023-05-18T00:56:26.400Z,22.23
2023-05-18T01:01:35.862Z,22.40
2023-05-18T01:06:44.060Z,22.48
2023-05-18T01:12:02.043Z,22.65
2023-05-18T01:17:41.041Z,22.75
2023-05-18T01:23:11.422Z,22.93
2023-05-18T01:28:20.022Z,23.02
2023-05-18T01:33:26.555Z,23.03
2023-05-18T01:38:32.071Z,23.20
2023-05-18T01:43:39.943Z,23.32
2023-05-18T01:48:50.594Z,23.44
2023-05-18T01:54:02.476Z,23.57
2023-05-18T01:59:07.933Z,23.69
2023-05-18T02:04:14.288Z,23.80
2023-05-18T02:09:19.339Z,23.91
2023-05-18T02:14:25.548Z,24.00
2023-05-18T02:19:34.593Z,24.11
2023-05-18T02:24:40.917Z,24.24
2023-05-18T02:29:45.896Z,24.37
2023-05-18T02:34:54.481Z,24.47
2023-05-18T02:39:59.467Z,24.51
2023-05-18T02:45:04.953Z,24.59
2023-05-18T02:50:10.995Z,24.67
2023-05-18T02:55:16.168Z,24.61
2023-05-18T03:00:33.303Z,24.69
2023-05-18T03:05:37.500Z,24.76
2023-05-18T03:10:42.594Z,24.88
2023-05-18T03:15:48.476Z,24.95
2023-05-18T03:20:54.046Z,25.05
2023-05-18T03:25:59.438Z,25.12
2023-05-18T03:31:06.641Z,25.25
2023-05-18T03:36:14.341Z,25.34
2023-05-18T03:41:20.819Z,25.36
2023-05-18T03:46:27.303Z,25.42
2023-05-18T03:51:33.620Z,25.48
2023-05-18T03:56:39.878Z,25.47
2023-05-18T04:01:45.750Z,25.56
2023-05-18T04:06:52.995Z,25.63
2023-05-18T04:11:57.976Z,25.63
2023-05-18T04:17:07.707Z,25.67
2023-05-18T04:22:13.943Z,25.74
2023-05-18T04:27:18.937Z,25.73
2023-05-18T04:32:28.331Z,25.81
2023-05-18T04:37:34.180Z,25.87
2023-05-18T04:42:46.577Z,25.90
2023-05-18T04:47:54.939Z,25.96
2023-05-18T04:53:03.425Z,26.04
2023-05-18T04:58:09.668Z,26.10
2023-05-18T05:03:15.009Z,26.16
2023-05-18T05:08:20.045Z,26.25
2023-05-18T05:13:25.058Z,26.33
2023-05-18T05:18:30.137Z,26.42
2023-05-18T05:23:35.850Z,26.47
2023-05-18T05:28:41.971Z,26.51
2023-05-18T05:33:47.564Z,26.57
2023-05-18T05:38:52.666Z,26.58
2023-05-18T05:43:58.372Z,26.64
2023-05-18T05:49:04.683Z,26.68
2023-05-18T05:54:10.907Z,26.79
2023-05-18T05:59:16.880Z,26.85
2023-05-18T06:04:22.959Z,26.88
2023-05-18T06:09:29.836Z,26.91
2023-05-18T06:14:35.077Z,26.98
2023-05-18T06:19:40.364Z,27.01
2023-05-18T06:24:45.494Z,27.00
2023-05-18T06:30:13.871Z,27.00
2023-05-18T06:35:48.116Z,26.95
2023-05-18T06:40:53.270Z,27.01
2023-05-18T06:45:58.725Z,27.06
2023-05-18T06:51:13.615Z,27.13
2023-05-18T06:56:20.055Z,27.21
2023-05-18T07:01:26.422Z,27.27
2023-05-18T07:06:35.569Z,27.25
2023-05-18T07:11:41.896Z,27.32
2023-05-18T07:16:48.556Z,27.36
2023-05-18T07:21:54.073Z,27.43
2023-05-18T07:27:00.795Z,27.49
2023-05-18T07:32:06.561Z,27.54
2023-05-18T07:37:12.156Z,27.54
2023-05-18T07:42:18.808Z,27.59
2023-05-18T07:47:29.742Z,27.63
2023-05-18T07:52:35.892Z,27.65
2023-05-18T07:57:40.584Z,27.64
2023-05-18T08:02:47.465Z,27.62
2023-05-18T08:07:53.425Z,27.60
2023-05-18T08:13:02.174Z,27.52
2023-05-18T08:18:11.340Z,27.51
2023-05-18T08:23:16.553Z,27.52
2023-05-18T08:28:22.082Z,27.51
2023-05-18T08:33:30.135Z,27.53
2023-05-18T08:38:36.568Z,27.50
2023-05-18T08:43:48.237Z,27.47
2023-05-18T08:48:57.134Z,27.49
2023-05-18T08:54:10.560Z,27.91
2023-05-18T08:59:20.461Z,27.98
2023-05-18T09:04:26.719Z,27.94
2023-05-18T09:09:32.951Z,27.86
2023-05-18T09:14:38.247Z,27.82
2023-05-18T09:19:43.239Z,27.81
2023-05-18T09:24:48.722Z,27.69
2023-05-18T09:29:58.848Z,27.52
2023-05-18T09:35:11.400Z,27.36
2023-05-18T09:40:17.982Z,27.17
2023-05-18T09:45:30.194Z,27.05
2023-05-18T09:50:36.201Z,26.94
2023-05-18T09:55:50.053Z,26.86
2023-05-18T10:00:58.209Z,26.74
2023-05-18T10:06:14.737Z,26.60
2023-05-18T10:11:23.226Z,26.49
2023-05-18T10:16:28.532Z,26.30
2023-05-18T10:21:38.042Z,26.18
2023-05-18T10:26:45.995Z,26.04
2023-05-18T10:31:55.152Z,25.98
2023-05-18T10:37:06.514Z,25.90
2023-05-18T10:42:13.691Z,25.76
2023-05-18T10:47:22.233Z,25.59
2023-05-18T10:52:33.087Z,25.52
2023-05-18T10:57:39.921Z,25.42
2023-05-18T11:02:45.815Z,25.27
2023-05-18T11:07:51.189Z,25.14
2023-05-18T11:12:56.381Z,25.01
2023-05-18T11:18:21.422Z,25.00
2023-05-18T11:23:26.551Z,24.94
2023-05-18T11:28:31.957Z,24.87
2023-05-18T11:33:39.634Z,24.70
2023-05-18T11:39:12.792Z,24.61
2023-05-18T11:44:20.005Z,24.54
2023-05-18T11:49:28.673Z,24.50
2023-05-18T11:54:41.596Z,24.47
2023-05-18T11:59:48.358Z,24.34
2023-05-18T12:05:04.133Z,24.22
2023-05-18T12:10:15.795Z,24.18
2023-05-18T12:15:26.375Z,24.03
2023-05-18T12:20:32.366Z,23.99
2023-05-18T12:25:38.615Z,23.89
2023-05-18T12:30:45.255Z,23.79
2023-05-18T12:35:50.051Z,23.69
2023-05-18T12:40:56.917Z,23.67
2023-05-18T12:46:07.370Z,23.68
2023-05-18T12:51:20.772Z,23.67
2023-05-18T12:56:28.553Z,23.60
2023-05-18T13:01:45.332Z,23.55
2023-05-18T13:06:50.348Z,23.54
2023-05-18T13:12:07.246Z,23.50
2023-05-18T13:17:13.183Z,23.46
2023-05-18T13:22:19.233Z,23.39
2023-05-18T13:27:27.178Z,23.36
2023-05-18T13:32:32.518Z,23.32
2023-05-18T13:37:37.590Z,23.30
2023-05-18T13:42:42.863Z,23.28
2023-05-18T13:47:52.113Z,23.25
2023-05-18T13:52:57.597Z,23.12
2023-05-18T13:58:02.858Z,23.00
2023-05-18T14:03:07.683Z,22.94
2023-05-18T14:08:13.731Z,22.91
2023-05-18T14:13:19.830Z,22.94
2023-05-18T14:18:25.006Z,22.96
2023-05-18T14:23:31.086Z,23.00
2023-05-18T14:28:37.210Z,22.99
2023-05-18T14:33:42.530Z,22.97
2023-05-18T14:38:47.878Z,22.96
2023-05-18T14:43:55.092Z,22.91
2023-05-18T14:48:59.423Z,22.83
2023-05-18T14:54:04.770Z,22.71
2023-05-18T14:59:09.158Z,22.61
2023-05-18T15:04:16.127Z,22.50
2023-05-18T15:09:22.178Z,22.34
2023-05-18T15:14:27.970Z,22.11
2023-05-18T15:19:33.241Z,21.91
2023-05-18T15:24:38.572Z,21.50
2023-05-18T15:29:43.822Z,21.22
2023-05-18T15:34:52.269Z,20.94
2023-05-18T15:40:00.197Z,20.70
2023-05-18T15:45:06.416Z,20.49
2023-05-18T15:50:12.030Z,20.32
2023-05-18T15:55:16.980Z,20.17
2023-05-18T16:00:24.838Z,20.06
2023-05-18T16:05:30.018Z,19.85
2023-05-18T16:10:34.965Z,19.68
2023-05-18T16:15:40.425Z,19.49
2023-05-18T16:20:46.348Z,19.33
2023-05-18T16:25:51.644Z,19.21
2023-05-18T16:30:56.676Z,19.14
2023-05-18T16:36:01.284Z,19.07
2023-05-18T16:41:07.477Z,18.97
2023-05-18T16:46:15.201Z,18.95
2023-05-18T16:51:20.526Z,18.91
2023-05-18T16:56:26.565Z,18.91
2023-05-18T17:01:32.069Z,18.88
2023-05-18T17:06:37.432Z,18.84
2023-05-18T17:11:42.368Z,18.75
2023-05-18T17:16:48.673Z,18.67
2023-05-18T17:21:53.827Z,18.59
2023-05-18T17:26:58.635Z,18.47
2023-05-18T17:32:03.835Z,18.38
2023-05-18T17:37:08.823Z,18.35
2023-05-18T17:42:13.896Z,18.33
2023-05-18T17:47:19.599Z,18.23
2023-05-18T17:52:24.671Z,18.37
2023-05-18T17:57:30.970Z,18.35
2023-05-18T18:02:35.878Z,18.32
2023-05-18T18:07:41.040Z,18.31
2023-05-18T18:12:46.116Z,18.32
2023-05-18T18:17:51.217Z,18.28
2023-05-18T18:22:56.122Z,18.26
2023-05-18T18:28:00.595Z,18.24
2023-05-18T18:33:06.251Z,18.19
2023-05-18T18:38:11.391Z,18.19
2023-05-18T18:43:17.985Z,18.17
2023-05-18T18:48:23.937Z,18.13
2023-05-18T18:53:29.015Z,18.14
2023-05-18T18:58:34.016Z,18.11
2023-05-18T19:03:38.922Z,18.12
2023-05-18T19:08:44.763Z,18.12
2023-05-18T19:13:49.993Z,18.12
2023-05-18T19:18:55.863Z,18.10
2023-05-18T19:24:00.981Z,18.10
2023-05-18T19:29:06.051Z,18.12
2023-05-18T19:34:10.881Z,18.12
2023-05-18T19:39:18.776Z,18.14
2023-05-18T19:44:23.874Z,18.12
2023-05-18T19:49:30.908Z,18.10
2023-05-18T19:54:38.161Z,18.15
2023-05-18T19:59:44.032Z,18.10
2023-05-18T20:04:49.759Z,18.03
2023-05-18T20:09:55.908Z,17.91
2023-05-18T20:15:00.869Z,17.90
2023-05-18T20:20:07.329Z,17.89
2023-05-18T20:25:13.286Z,17.87
2023-05-18T20:30:18.059Z,17.84
2023-05-18T20:35:23.475Z,17.78
2023-05-18T20:40:32.257Z,17.76
2023-05-18T20:45:37.948Z,17.72
2023-05-18T20:50:42.912Z,17.70
2023-05-18T20:55:49.925Z,17.69
2023-05-18T21:00:57.571Z,17.71
2023-05-18T21:06:03.654Z,17.71
2023-05-18T21:11:08.921Z,17.72
2023-05-18T21:16:13.279Z,17.73
2023-05-18T21:21:21.048Z,17.72
2023-05-18T21:26:26.954Z,17.74
2023-05-18T21:31:32.869Z,17.74
2023-05-18T21:36:38.034Z,17.74
2023-05-18T21:41:44.890Z,17.75
2023-05-18T21:46:50.048Z,17.71
2023-05-18T21:51:54.609Z,17.74
2023-05-18T21:56:59.701Z,17.75
2023-05-18T22:02:04.919Z,17.71
2023-05-18T22:07:11.040Z,17.74
2023-05-18T22:12:15.808Z,17.72
2023-05-18T22:17:20.755Z,17.71
2023-05-18T22:27:35.019Z,17.75
2023-05-18T22:32:40.695Z,17.79
2023-05-18T22:37:45.652Z,17.79
2023-05-18T22:42:50.727Z,17.78
2023-05-18T22:47:55.779Z,17.82
2023-05-18T22:53:00.699Z,17.81
2023-05-18T22:58:05.912Z,17.79
2023-05-18T23:03:10.974Z,17.76
2023-05-18T23:08:16.702Z,17.78
2023-05-18T23:13:20.942Z,17.76
2023-05-18T23:18:27.884Z,17.73
2023-05-18T23:23:34.054Z,17.74
2023-05-18T23:28:39.225Z,17.72
2023-05-18T23:33:44.555Z,17.73
2023-05-18T23:38:52.692Z,17.71
2023-05-18T23:43:58.727Z,17.72
2023-05-18T23:49:04.141Z,17.73
2023-05-18T23:54:09.352Z,17.76
2023-05-18T23:59:17.274Z,17.74
